sensor_id;sensor_type;location;lat;lon;timestamp;temperature;humidity
52725;DHT22;38621;52.830;6.914;2023-01-10T00:00:38;4.90;99.90
52725;DHT22;38621;52.830;6.914;2023-01-10T00:03:07;4.90;99.90
52725;DHT22;38621;52.830;6.914;2023-01-10T00:05:34;5.00;99.90
52725;DHT22;38621;52.830;6.914;2023-01-10T00:08:00;5.00;99.90
52725;DHT22;38621;52.830;6.914;2023-01-10T00:10:30;4.90;99.90
52725;DHT22;38621;52.830;6.914;2023-01-10T00:12:56;4.90;99.90
52725;DHT22;38621;52.830;6.914;2023-01-10T00:15:40;4.80;99.90
52725;DHT22;38621;52.830;6.914;2023-01-10T00:18:06;4.80;99.90
52725;DHT22;38621;52.830;6.914;2023-01-10T00:20:32;4.90;99.90
52725;DHT22;38621;52.830;6.914;2023-01-10T00:22:58;4.40;99.90
52725;DHT22;38621;52.830;6.914;2023-01-10T00:25:24;4.80;99.90
52725;DHT22;38621;52.830;6.914;2023-01-10T00:27:53;4.80;99.90
52725;DHT22;38621;52.830;6.914;2023-01-10T00:30:37;4.70;99.90
52725;DHT22;38621;52.830;6.914;2023-01-10T00:33:04;4.60;99.90
52725;DHT22;38621;52.830;6.914;2023-01-10T00:35:30;4.60;99.90
52725;DHT22;38621;52.830;6.914;2023-01-10T00:37:55;4.50;99.90
52725;DHT22;38621;52.830;6.914;2023-01-10T00:40:30;4.50;99.90
52725;DHT22;38621;52.830;6.914;2023-01-10T00:42:57;4.50;99.90
52725;DHT22;38621;52.830;6.914;2023-01-10T00:45:46;4.50;99.90
52725;DHT22;38621;52.830;6.914;2023-01-10T00:48:13;4.60;99.90
52725;DHT22;38621;52.830;6.914;2023-01-10T00:50:40;4.60;99.90
52725;DHT22;38621;52.830;6.914;2023-01-10T00:53:06;4.60;99.90
52725;DHT22;38621;52.830;6.914;2023-01-10T00:55:33;4.70;99.90
52725;DHT22;38621;52.830;6.914;2023-01-10T00:57:59;4.80;99.90
52725;DHT22;38621;52.830;6.914;2023-01-10T01:00:25;4.80;99.90
52725;DHT22;38621;52.830;6.914;2023-01-10T01:02:50;4.90;99.90
52725;DHT22;38621;52.830;6.914;2023-01-10T01:05:17;4.90;99.90
52725;DHT22;38621;52.830;6.914;2023-01-10T01:07:43;5.00;99.90
52725;DHT22;38621;52.830;6.914;2023-01-10T01:10:09;5.00;99.90
52725;DHT22;38621;52.830;6.914;2023-01-10T01:12:57;5.00;99.90
52725;DHT22;38621;52.830;6.914;2023-01-10T01:15:24;5.00;99.90
52725;DHT22;38621;52.830;6.914;2023-01-10T01:17:50;5.00;99.90
52725;DHT22;38621;52.830;6.914;2023-01-10T01:20:16;5.00;99.90
52725;DHT22;38621;52.830;6.914;2023-01-10T01:22:42;4.90;99.90
52725;DHT22;38621;52.830;6.914;2023-01-10T01:25:08;4.90;99.90
52725;DHT22;38621;52.830;6.914;2023-01-10T01:27:34;4.80;99.90
52725;DHT22;38621;52.830;6.914;2023-01-10T01:30:00;4.80;99.90
52725;DHT22;38621;52.830;6.914;2023-01-10T01:32:26;4.80;99.90
52725;DHT22;38621;52.830;6.914;2023-01-10T01:34:52;4.70;99.90
52725;DHT22;38621;52.830;6.914;2023-01-10T01:37:18;4.70;99.90
52725;DHT22;38621;52.830;6.914;2023-01-10T01:39:47;4.70;99.90
52725;DHT22;38621;52.830;6.914;2023-01-10T01:42:28;4.80;99.90
52725;DHT22;38621;52.830;6.914;2023-01-10T01:48:12;4.90;99.90
52725;DHT22;38621;52.830;6.914;2023-01-10T01:50:47;5.00;99.90
52725;DHT22;38621;52.830;6.914;2023-01-10T01:56:11;4.90;99.90
52725;DHT22;38621;52.830;6.914;2023-01-10T01:58:46;4.90;99.90
52725;DHT22;38621;52.830;6.914;2023-01-10T02:01:15;5.10;99.90
52725;DHT22;38621;52.830;6.914;2023-01-10T02:03:42;5.00;99.90
52725;DHT22;38621;52.830;6.914;2023-01-10T02:06:09;5.00;99.90
52725;DHT22;38621;52.830;6.914;2023-01-10T02:08:38;4.90;99.90
52725;DHT22;38621;52.830;6.914;2023-01-10T02:11:09;4.80;99.90
52725;DHT22;38621;52.830;6.914;2023-01-10T02:13:39;4.80;99.90
52725;DHT22;38621;52.830;6.914;2023-01-10T02:16:06;4.70;99.90
52725;DHT22;38621;52.830;6.914;2023-01-10T02:18:32;4.70;99.90
52725;DHT22;38621;52.830;6.914;2023-01-10T02:24:10;4.80;99.90
52725;DHT22;38621;52.830;6.914;2023-01-10T02:35:09;4.70;99.90
52725;DHT22;38621;52.830;6.914;2023-01-10T02:43:10;4.70;99.90
52725;DHT22;38621;52.830;6.914;2023-01-10T02:48:55;4.70;99.90
52725;DHT22;38621;52.830;6.914;2023-01-10T02:51:24;4.70;99.90
52725;DHT22;38621;52.830;6.914;2023-01-10T02:56:35;4.70;99.90
52725;DHT22;38621;52.830;6.914;2023-01-10T03:04:36;4.60;99.90
52725;DHT22;38621;52.830;6.914;2023-01-10T03:15:15;4.40;99.90
52725;DHT22;38621;52.830;6.914;2023-01-10T03:17:46;4.50;99.90
52725;DHT22;38621;52.830;6.914;2023-01-10T03:20:14;4.50;99.90
52725;DHT22;38621;52.830;6.914;2023-01-10T03:22:42;4.50;99.90
52725;DHT22;38621;52.830;6.914;2023-01-10T03:25:10;4.50;99.90
52725;DHT22;38621;52.830;6.914;2023-01-10T03:27:50;4.60;99.90
52725;DHT22;38621;52.830;6.914;2023-01-10T03:30:38;4.70;99.90
52725;DHT22;38621;52.830;6.914;2023-01-10T03:33:05;4.70;99.90
52725;DHT22;38621;52.830;6.914;2023-01-10T03:38:44;4.70;99.90
52725;DHT22;38621;52.830;6.914;2023-01-10T03:49:20;4.80;99.90
52725;DHT22;38621;52.830;6.914;2023-01-10T03:51:47;4.80;99.90
52725;DHT22;38621;52.830;6.914;2023-01-10T03:54:15;4.70;99.90
52725;DHT22;38621;52.830;6.914;2023-01-10T03:56:48;4.60;99.90
52725;DHT22;38621;52.830;6.914;2023-01-10T03:59:25;4.50;99.90
52725;DHT22;38621;52.830;6.914;2023-01-10T04:01:52;4.50;99.90
52725;DHT22;38621;52.830;6.914;2023-01-10T04:04:18;4.50;99.90
52725;DHT22;38621;52.830;6.914;2023-01-10T04:06:44;4.40;99.90
52725;DHT22;38621;52.830;6.914;2023-01-10T04:09:10;4.40;99.90
52725;DHT22;38621;52.830;6.914;2023-01-10T04:11:35;4.30;99.90
52725;DHT22;38621;52.830;6.914;2023-01-10T04:14:01;4.40;99.90
52725;DHT22;38621;52.830;6.914;2023-01-10T04:16:27;4.40;99.90
52725;DHT22;38621;52.830;6.914;2023-01-10T04:18:53;4.50;99.90
52725;DHT22;38621;52.830;6.914;2023-01-10T04:21:18;4.50;99.90
52725;DHT22;38621;52.830;6.914;2023-01-10T04:23:44;4.40;99.90
52725;DHT22;38621;52.830;6.914;2023-01-10T04:26:10;4.50;99.90
52725;DHT22;38621;52.830;6.914;2023-01-10T04:28:36;4.50;99.90
52725;DHT22;38621;52.830;6.914;2023-01-10T04:31:02;4.60;99.90
52725;DHT22;38621;52.830;6.914;2023-01-10T04:33:28;4.70;99.90
52725;DHT22;38621;52.830;6.914;2023-01-10T04:35:54;4.80;99.90
52725;DHT22;38621;52.830;6.914;2023-01-10T04:38:19;4.80;99.90
52725;DHT22;38621;52.830;6.914;2023-01-10T04:40:55;4.80;99.90
52725;DHT22;38621;52.830;6.914;2023-01-10T04:43:21;4.80;99.90
52725;DHT22;38621;52.830;6.914;2023-01-10T04:45:47;4.90;99.90
52725;DHT22;38621;52.830;6.914;2023-01-10T04:48:13;4.80;99.90
52725;DHT22;38621;52.830;6.914;2023-01-10T04:50:39;4.90;99.90
52725;DHT22;38621;52.830;6.914;2023-01-10T04:53:04;4.90;99.90
52725;DHT22;38621;52.830;6.914;2023-01-10T04:55:31;5.00;99.90
52725;DHT22;38621;52.830;6.914;2023-01-10T04:57:57;5.00;99.90
52725;DHT22;38621;52.830;6.914;2023-01-10T05:00:24;5.00;99.90
52725;DHT22;38621;52.830;6.914;2023-01-10T05:02:54;5.00;99.90
52725;DHT22;38621;52.830;6.914;2023-01-10T05:05:20;5.00;99.90
52725;DHT22;38621;52.830;6.914;2023-01-10T05:07:49;4.90;99.90
52725;DHT22;38621;52.830;6.914;2023-01-10T05:10:15;4.90;99.90
52725;DHT22;38621;52.830;6.914;2023-01-10T05:12:41;5.00;99.90
52725;DHT22;38621;52.830;6.914;2023-01-10T05:15:07;5.00;99.90
52725;DHT22;38621;52.830;6.914;2023-01-10T05:17:33;5.00;99.90
52725;DHT22;38621;52.830;6.914;2023-01-10T05:19:58;5.10;99.90
52725;DHT22;38621;52.830;6.914;2023-01-10T05:22:24;5.00;99.90
52725;DHT22;38621;52.830;6.914;2023-01-10T05:24:50;5.00;99.90
52725;DHT22;38621;52.830;6.914;2023-01-10T05:27:16;5.00;99.90
52725;DHT22;38621;52.830;6.914;2023-01-10T05:29:42;4.90;99.90
52725;DHT22;38621;52.830;6.914;2023-01-10T05:32:07;4.90;99.90
52725;DHT22;38621;52.830;6.914;2023-01-10T05:34:33;5.00;99.90
52725;DHT22;38621;52.830;6.914;2023-01-10T05:36:59;5.00;99.90
52725;DHT22;38621;52.830;6.914;2023-01-10T05:39:25;5.00;99.90
52725;DHT22;38621;52.830;6.914;2023-01-10T05:41:50;5.00;99.90
52725;DHT22;38621;52.830;6.914;2023-01-10T05:44:16;4.90;99.90
52725;DHT22;38621;52.830;6.914;2023-01-10T05:46:42;5.00;99.90
52725;DHT22;38621;52.830;6.914;2023-01-10T05:49:07;5.00;99.90
52725;DHT22;38621;52.830;6.914;2023-01-10T05:51:34;5.00;99.90
52725;DHT22;38621;52.830;6.914;2023-01-10T05:54:00;5.00;99.90
52725;DHT22;38621;52.830;6.914;2023-01-10T05:56:25;5.10;99.90
52725;DHT22;38621;52.830;6.914;2023-01-10T05:58:51;5.00;99.90
52725;DHT22;38621;52.830;6.914;2023-01-10T06:01:17;5.10;99.90
52725;DHT22;38621;52.830;6.914;2023-01-10T06:03:42;5.10;99.90
52725;DHT22;38621;52.830;6.914;2023-01-10T06:06:09;5.20;99.90
52725;DHT22;38621;52.830;6.914;2023-01-10T06:08:35;5.20;99.90
52725;DHT22;38621;52.830;6.914;2023-01-10T06:11:04;5.10;99.90
52725;DHT22;38621;52.830;6.914;2023-01-10T06:13:30;5.20;99.90
52725;DHT22;38621;52.830;6.914;2023-01-10T06:15:56;5.10;99.90
52725;DHT22;38621;52.830;6.914;2023-01-10T06:18:21;5.20;99.90
52725;DHT22;38621;52.830;6.914;2023-01-10T06:20:47;5.20;99.90
52725;DHT22;38621;52.830;6.914;2023-01-10T06:23:13;5.10;99.90
52725;DHT22;38621;52.830;6.914;2023-01-10T06:25:39;5.10;99.90
52725;DHT22;38621;52.830;6.914;2023-01-10T06:28:11;5.10;99.90
52725;DHT22;38621;52.830;6.914;2023-01-10T06:30:37;5.00;99.90
52725;DHT22;38621;52.830;6.914;2023-01-10T06:33:08;5.00;99.90
52725;DHT22;38621;52.830;6.914;2023-01-10T06:35:35;5.10;99.90
52725;DHT22;38621;52.830;6.914;2023-01-10T06:38:01;5.10;99.90
52725;DHT22;38621;52.830;6.914;2023-01-10T06:40:28;5.10;99.90
52725;DHT22;38621;52.830;6.914;2023-01-10T06:42:53;5.20;99.90
52725;DHT22;38621;52.830;6.914;2023-01-10T06:45:19;5.20;99.90
52725;DHT22;38621;52.830;6.914;2023-01-10T06:47:45;5.20;99.90
52725;DHT22;38621;52.830;6.914;2023-01-10T06:50:12;5.20;99.90
52725;DHT22;38621;52.830;6.914;2023-01-10T06:52:37;5.10;99.90
52725;DHT22;38621;52.830;6.914;2023-01-10T06:55:04;5.10;99.90
52725;DHT22;38621;52.830;6.914;2023-01-10T06:57:31;5.10;99.90
52725;DHT22;38621;52.830;6.914;2023-01-10T07:00:01;5.20;99.90
52725;DHT22;38621;52.830;6.914;2023-01-10T07:02:27;5.20;99.90
52725;DHT22;38621;52.830;6.914;2023-01-10T07:04:52;5.20;99.90
52725;DHT22;38621;52.830;6.914;2023-01-10T07:07:18;5.20;99.90
52725;DHT22;38621;52.830;6.914;2023-01-10T07:09:44;5.20;99.90
52725;DHT22;38621;52.830;6.914;2023-01-10T07:12:10;5.30;99.90
52725;DHT22;38621;52.830;6.914;2023-01-10T07:14:36;5.30;99.90
52725;DHT22;38621;52.830;6.914;2023-01-10T07:17:02;5.30;99.90
52725;DHT22;38621;52.830;6.914;2023-01-10T07:19:28;5.30;99.90
52725;DHT22;38621;52.830;6.914;2023-01-10T07:21:53;5.30;99.90
52725;DHT22;38621;52.830;6.914;2023-01-10T07:24:19;5.40;99.90
52725;DHT22;38621;52.830;6.914;2023-01-10T07:26:45;5.40;99.90
52725;DHT22;38621;52.830;6.914;2023-01-10T07:29:10;5.40;99.90
52725;DHT22;38621;52.830;6.914;2023-01-10T07:31:36;5.30;99.90
52725;DHT22;38621;52.830;6.914;2023-01-10T07:34:02;5.30;99.90
52725;DHT22;38621;52.830;6.914;2023-01-10T07:36:28;5.20;99.90
52725;DHT22;38621;52.830;6.914;2023-01-10T07:38:54;5.20;99.90
52725;DHT22;38621;52.830;6.914;2023-01-10T07:41:19;5.20;99.90
52725;DHT22;38621;52.830;6.914;2023-01-10T07:43:45;5.20;99.90
52725;DHT22;38621;52.830;6.914;2023-01-10T07:46:11;5.20;99.90
52725;DHT22;38621;52.830;6.914;2023-01-10T07:48:37;5.20;99.90
52725;DHT22;38621;52.830;6.914;2023-01-10T07:51:04;5.20;99.90
52725;DHT22;38621;52.830;6.914;2023-01-10T07:53:30;5.20;99.90
52725;DHT22;38621;52.830;6.914;2023-01-10T07:56:00;5.20;99.90
52725;DHT22;38621;52.830;6.914;2023-01-10T07:58:27;5.20;99.90
52725;DHT22;38621;52.830;6.914;2023-01-10T08:01:01;5.10;99.90
52725;DHT22;38621;52.830;6.914;2023-01-10T08:03:28;5.10;99.90
52725;DHT22;38621;52.830;6.914;2023-01-10T08:06:08;5.10;99.90
52725;DHT22;38621;52.830;6.914;2023-01-10T08:08:37;5.10;99.90
52725;DHT22;38621;52.830;6.914;2023-01-10T08:11:03;5.10;99.90
52725;DHT22;38621;52.830;6.914;2023-01-10T08:13:30;5.00;99.90
52725;DHT22;38621;52.830;6.914;2023-01-10T08:15:56;5.00;99.90
52725;DHT22;38621;52.830;6.914;2023-01-10T08:18:24;5.00;99.90
52725;DHT22;38621;52.830;6.914;2023-01-10T08:20:52;5.00;99.90
52725;DHT22;38621;52.830;6.914;2023-01-10T08:23:18;5.00;99.90
52725;DHT22;38621;52.830;6.914;2023-01-10T08:25:45;5.00;99.90
52725;DHT22;38621;52.830;6.914;2023-01-10T08:28:11;5.00;99.90
52725;DHT22;38621;52.830;6.914;2023-01-10T08:30:38;5.00;99.90
52725;DHT22;38621;52.830;6.914;2023-01-10T08:33:04;5.10;99.90
52725;DHT22;38621;52.830;6.914;2023-01-10T08:35:35;5.00;99.90
52725;DHT22;38621;52.830;6.914;2023-01-10T08:38:01;5.00;99.90
52725;DHT22;38621;52.830;6.914;2023-01-10T08:40:26;5.00;99.90
52725;DHT22;38621;52.830;6.914;2023-01-10T08:42:57;5.10;99.90
52725;DHT22;38621;52.830;6.914;2023-01-10T08:45:23;5.20;99.90
52725;DHT22;38621;52.830;6.914;2023-01-10T08:47:49;5.30;99.90
52725;DHT22;38621;52.830;6.914;2023-01-10T08:50:15;5.30;99.90
52725;DHT22;38621;52.830;6.914;2023-01-10T08:52:41;5.40;99.90
52725;DHT22;38621;52.830;6.914;2023-01-10T08:55:07;5.40;99.90
52725;DHT22;38621;52.830;6.914;2023-01-10T08:57:33;5.50;99.90
52725;DHT22;38621;52.830;6.914;2023-01-10T08:59:58;5.50;99.90
52725;DHT22;38621;52.830;6.914;2023-01-10T09:02:24;5.50;99.90
52725;DHT22;38621;52.830;6.914;2023-01-10T09:04:50;5.50;99.90
52725;DHT22;38621;52.830;6.914;2023-01-10T09:07:15;5.50;99.90
52725;DHT22;38621;52.830;6.914;2023-01-10T09:09:41;5.50;99.90
52725;DHT22;38621;52.830;6.914;2023-01-10T09:12:07;5.50;99.90
52725;DHT22;38621;52.830;6.914;2023-01-10T09:14:52;5.50;99.90
52725;DHT22;38621;52.830;6.914;2023-01-10T09:17:18;5.40;99.90
52725;DHT22;38621;52.830;6.914;2023-01-10T09:19:44;4.80;99.90
52725;DHT22;38621;52.830;6.914;2023-01-10T09:22:10;5.30;99.90
52725;DHT22;38621;52.830;6.914;2023-01-10T09:24:35;5.40;99.90
52725;DHT22;38621;52.830;6.914;2023-01-10T09:27:06;5.40;99.90
52725;DHT22;38621;52.830;6.914;2023-01-10T09:29:32;5.50;99.90
52725;DHT22;38621;52.830;6.914;2023-01-10T09:31:57;5.60;99.90
52725;DHT22;38621;52.830;6.914;2023-01-10T09:34:23;5.70;99.90
52725;DHT22;38621;52.830;6.914;2023-01-10T09:36:49;5.80;99.90
52725;DHT22;38621;52.830;6.914;2023-01-10T09:39:15;5.80;99.90
52725;DHT22;38621;52.830;6.914;2023-01-10T09:44:49;6.00;99.90
52725;DHT22;38621;52.830;6.914;2023-01-10T09:52:33;6.00;99.90
52725;DHT22;38621;52.830;6.914;2023-01-10T09:55:19;6.10;99.90
52725;DHT22;38621;52.830;6.914;2023-01-10T09:57:46;6.10;99.90
52725;DHT22;38621;52.830;6.914;2023-01-10T10:00:19;6.10;99.90
52725;DHT22;38621;52.830;6.914;2023-01-10T10:02:50;6.20;99.90
52725;DHT22;38621;52.830;6.914;2023-01-10T10:05:26;6.20;99.90
52725;DHT22;38621;52.830;6.914;2023-01-10T10:07:54;6.30;99.90
52725;DHT22;38621;52.830;6.914;2023-01-10T10:10:24;6.30;99.90
52725;DHT22;38621;52.830;6.914;2023-01-10T10:34:22;6.50;99.90
52725;DHT22;38621;52.830;6.914;2023-01-10T10:37:01;6.50;99.90
52725;DHT22;38621;52.830;6.914;2023-01-10T10:39:38;6.50;99.90
52725;DHT22;38621;52.830;6.914;2023-01-10T10:42:12;6.50;99.90
52725;DHT22;38621;52.830;6.914;2023-01-10T10:44:52;6.50;99.90
52725;DHT22;38621;52.830;6.914;2023-01-10T10:47:21;6.60;99.90
52725;DHT22;38621;52.830;6.914;2023-01-10T10:53:04;6.60;99.90
52725;DHT22;38621;52.830;6.914;2023-01-10T10:55:35;6.60;99.90
52725;DHT22;38621;52.830;6.914;2023-01-10T10:58:03;6.60;99.90
52725;DHT22;38621;52.830;6.914;2023-01-10T11:00:30;6.60;99.90
52725;DHT22;38621;52.830;6.914;2023-01-10T11:05:44;6.60;99.90
52725;DHT22;38621;52.830;6.914;2023-01-10T11:08:13;6.60;99.90
52725;DHT22;38621;52.830;6.914;2023-01-10T11:10:43;6.70;99.90
52725;DHT22;38621;52.830;6.914;2023-01-10T11:13:22;6.70;99.90
52725;DHT22;38621;52.830;6.914;2023-01-10T11:15:50;6.70;99.90
52725;DHT22;38621;52.830;6.914;2023-01-10T11:18:24;6.70;99.90
52725;DHT22;38621;52.830;6.914;2023-01-10T11:20:58;6.60;99.90
52725;DHT22;38621;52.830;6.914;2023-01-10T11:23:53;6.70;99.90
52725;DHT22;38621;52.830;6.914;2023-01-10T11:26:34;6.60;99.90
52725;DHT22;38621;52.830;6.914;2023-01-10T11:29:13;6.70;99.90
52725;DHT22;38621;52.830;6.914;2023-01-10T11:31:40;6.70;99.90
52725;DHT22;38621;52.830;6.914;2023-01-10T11:34:20;6.70;99.90
52725;DHT22;38621;52.830;6.914;2023-01-10T11:36:57;6.70;99.90
52725;DHT22;38621;52.830;6.914;2023-01-10T11:39:24;6.70;99.90
52725;DHT22;38621;52.830;6.914;2023-01-10T11:41:50;6.70;99.90
52725;DHT22;38621;52.830;6.914;2023-01-10T11:44:28;6.70;99.90
52725;DHT22;38621;52.830;6.914;2023-01-10T11:47:04;6.70;99.90
52725;DHT22;38621;52.830;6.914;2023-01-10T11:49:38;6.80;99.90
52725;DHT22;38621;52.830;6.914;2023-01-10T11:52:19;6.70;99.90
52725;DHT22;38621;52.830;6.914;2023-01-10T11:54:45;6.80;99.90
52725;DHT22;38621;52.830;6.914;2023-01-10T11:57:17;6.70;99.90
52725;DHT22;38621;52.830;6.914;2023-01-10T11:59:56;6.70;99.90
52725;DHT22;38621;52.830;6.914;2023-01-10T12:02:24;6.80;99.90
52725;DHT22;38621;52.830;6.914;2023-01-10T12:04:51;6.80;99.90
52725;DHT22;38621;52.830;6.914;2023-01-10T12:07:18;6.80;99.90
52725;DHT22;38621;52.830;6.914;2023-01-10T12:12:20;6.70;99.90
52725;DHT22;38621;52.830;6.914;2023-01-10T12:14:47;6.70;99.90
52725;DHT22;38621;52.830;6.914;2023-01-10T12:17:34;6.70;99.90
52725;DHT22;38621;52.830;6.914;2023-01-10T12:20:02;6.70;99.90
52725;DHT22;38621;52.830;6.914;2023-01-10T12:22:46;6.70;99.90
52725;DHT22;38621;52.830;6.914;2023-01-10T12:25:42;6.70;99.90
52725;DHT22;38621;52.830;6.914;2023-01-10T12:28:29;6.70;99.90
52725;DHT22;38621;52.830;6.914;2023-01-10T12:30:57;6.70;99.90
52725;DHT22;38621;52.830;6.914;2023-01-10T12:33:32;6.70;99.90
52725;DHT22;38621;52.830;6.914;2023-01-10T12:36:22;6.70;99.90
52725;DHT22;38621;52.830;6.914;2023-01-10T12:39:07;6.60;99.90
52725;DHT22;38621;52.830;6.914;2023-01-10T12:44:35;6.60;99.90
52725;DHT22;38621;52.830;6.914;2023-01-10T12:47:21;6.60;99.90
52725;DHT22;38621;52.830;6.914;2023-01-10T12:52:44;6.60;99.90
52725;DHT22;38621;52.830;6.914;2023-01-10T12:55:17;6.60;99.90
52725;DHT22;38621;52.830;6.914;2023-01-10T12:57:47;6.60;99.90
52725;DHT22;38621;52.830;6.914;2023-01-10T13:00:39;6.60;99.90
52725;DHT22;38621;52.830;6.914;2023-01-10T13:03:12;6.50;99.90
52725;DHT22;38621;52.830;6.914;2023-01-10T13:05:40;6.60;99.90
52725;DHT22;38621;52.830;6.914;2023-01-10T13:08:11;6.50;99.90
52725;DHT22;38621;52.830;6.914;2023-01-10T13:10:43;6.50;99.90
52725;DHT22;38621;52.830;6.914;2023-01-10T13:13:33;6.50;99.90
52725;DHT22;38621;52.830;6.914;2023-01-10T13:18:29;6.50;99.90
52725;DHT22;38621;52.830;6.914;2023-01-10T13:23:32;6.40;99.90
52725;DHT22;38621;52.830;6.914;2023-01-10T13:26:06;6.40;99.90
52725;DHT22;38621;52.830;6.914;2023-01-10T13:28:36;6.40;99.90
52725;DHT22;38621;52.830;6.914;2023-01-10T13:31:31;6.40;99.90
52725;DHT22;38621;52.830;6.914;2023-01-10T13:34:06;6.40;99.90
52725;DHT22;38621;52.830;6.914;2023-01-10T13:36:56;6.40;99.90
52725;DHT22;38621;52.830;6.914;2023-01-10T13:39:30;6.30;99.90
52725;DHT22;38621;52.830;6.914;2023-01-10T14:01:25;6.30;99.90
52725;DHT22;38621;52.830;6.914;2023-01-10T14:04:21;6.30;99.90
52725;DHT22;38621;52.830;6.914;2023-01-10T14:09:47;6.30;99.90
52725;DHT22;38621;52.830;6.914;2023-01-10T14:12:25;6.30;99.90
52725;DHT22;38621;52.830;6.914;2023-01-10T14:14:58;6.30;99.90
52725;DHT22;38621;52.830;6.914;2023-01-10T14:17:58;6.30;99.90
52725;DHT22;38621;52.830;6.914;2023-01-10T14:20:25;6.30;99.90
52725;DHT22;38621;52.830;6.914;2023-01-10T14:25:32;6.30;99.90
52725;DHT22;38621;52.830;6.914;2023-01-10T14:27:59;6.30;99.90
52725;DHT22;38621;52.830;6.914;2023-01-10T14:30:30;6.30;99.90
52725;DHT22;38621;52.830;6.914;2023-01-10T14:33:13;6.30;99.90
52725;DHT22;38621;52.830;6.914;2023-01-10T14:35:44;6.40;99.90
52725;DHT22;38621;52.830;6.914;2023-01-10T14:38:37;6.40;99.90
52725;DHT22;38621;52.830;6.914;2023-01-10T14:41:09;6.40;99.90
52725;DHT22;38621;52.830;6.914;2023-01-10T14:43:42;6.40;99.90
52725;DHT22;38621;52.830;6.914;2023-01-10T14:46:16;6.40;99.90
52725;DHT22;38621;52.830;6.914;2023-01-10T14:48:52;6.40;99.90
52725;DHT22;38621;52.830;6.914;2023-01-10T14:51:31;6.40;99.90
52725;DHT22;38621;52.830;6.914;2023-01-10T14:54:12;6.50;99.90
52725;DHT22;38621;52.830;6.914;2023-01-10T14:56:43;6.50;99.90
52725;DHT22;38621;52.830;6.914;2023-01-10T15:02:20;6.40;99.90
52725;DHT22;38621;52.830;6.914;2023-01-10T15:07:24;6.50;99.90
52725;DHT22;38621;52.830;6.914;2023-01-10T15:09:53;6.50;99.90
52725;DHT22;38621;52.830;6.914;2023-01-10T15:12:22;6.60;99.90
52725;DHT22;38621;52.830;6.914;2023-01-10T15:14:52;6.60;99.90
52725;DHT22;38621;52.830;6.914;2023-01-10T15:17:20;6.50;99.90
52725;DHT22;38621;52.830;6.914;2023-01-10T15:19:49;6.50;99.90
52725;DHT22;38621;52.830;6.914;2023-01-10T15:22:30;6.50;99.90
52725;DHT22;38621;52.830;6.914;2023-01-10T15:27:27;6.50;99.90
52725;DHT22;38621;52.830;6.914;2023-01-10T15:29:54;6.50;99.90
52725;DHT22;38621;52.830;6.914;2023-01-10T15:32:33;6.50;99.90
52725;DHT22;38621;52.830;6.914;2023-01-10T15:34:59;6.50;99.90
52725;DHT22;38621;52.830;6.914;2023-01-10T15:37:37;6.60;99.90
52725;DHT22;38621;52.830;6.914;2023-01-10T15:40:17;6.60;99.90
52725;DHT22;38621;52.830;6.914;2023-01-10T15:42:46;6.60;99.90
52725;DHT22;38621;52.830;6.914;2023-01-10T15:45:28;6.60;99.90
52725;DHT22;38621;52.830;6.914;2023-01-10T15:48:01;6.60;99.90
52725;DHT22;38621;52.830;6.914;2023-01-10T15:50:32;6.70;99.90
52725;DHT22;38621;52.830;6.914;2023-01-10T15:53:06;6.70;99.90
52725;DHT22;38621;52.830;6.914;2023-01-10T15:55:38;6.70;99.90
52725;DHT22;38621;52.830;6.914;2023-01-10T15:58:11;6.70;99.90
52725;DHT22;38621;52.830;6.914;2023-01-10T16:00:43;6.80;99.90
52725;DHT22;38621;52.830;6.914;2023-01-10T16:05:50;6.80;99.90
52725;DHT22;38621;52.830;6.914;2023-01-10T16:08:17;6.80;99.90
52725;DHT22;38621;52.830;6.914;2023-01-10T16:10:51;6.80;99.90
52725;DHT22;38621;52.830;6.914;2023-01-10T16:13:18;6.80;99.90
52725;DHT22;38621;52.830;6.914;2023-01-10T16:15:55;6.70;99.90
52725;DHT22;38621;52.830;6.914;2023-01-10T16:18:22;6.70;99.90
52725;DHT22;38621;52.830;6.914;2023-01-10T16:20:49;6.70;99.90
52725;DHT22;38621;52.830;6.914;2023-01-10T16:23:27;6.70;99.90
52725;DHT22;38621;52.830;6.914;2023-01-10T16:25:57;6.70;99.90
52725;DHT22;38621;52.830;6.914;2023-01-10T16:28:23;6.70;99.90
52725;DHT22;38621;52.830;6.914;2023-01-10T16:30:51;6.70;99.90
52725;DHT22;38621;52.830;6.914;2023-01-10T16:33:19;6.70;99.90
52725;DHT22;38621;52.830;6.914;2023-01-10T16:35:49;6.70;99.90
52725;DHT22;38621;52.830;6.914;2023-01-10T16:38:16;6.50;99.90
52725;DHT22;38621;52.830;6.914;2023-01-10T16:40:46;6.60;99.90
52725;DHT22;38621;52.830;6.914;2023-01-10T16:43:12;6.60;99.90
52725;DHT22;38621;52.830;6.914;2023-01-10T16:45:47;6.60;99.90
52725;DHT22;38621;52.830;6.914;2023-01-10T16:48:14;6.60;99.90
52725;DHT22;38621;52.830;6.914;2023-01-10T16:50:40;6.50;99.90
52725;DHT22;38621;52.830;6.914;2023-01-10T16:53:15;6.50;99.90
52725;DHT22;38621;52.830;6.914;2023-01-10T16:55:44;6.40;99.90
52725;DHT22;38621;52.830;6.914;2023-01-10T16:58:11;6.40;99.90
52725;DHT22;38621;52.830;6.914;2023-01-10T17:00:39;6.40;99.90
52725;DHT22;38621;52.830;6.914;2023-01-10T17:03:08;6.40;99.90
52725;DHT22;38621;52.830;6.914;2023-01-10T17:05:37;6.40;99.90
52725;DHT22;38621;52.830;6.914;2023-01-10T17:08:04;6.30;99.90
52725;DHT22;38621;52.830;6.914;2023-01-10T17:10:32;6.30;99.90
52725;DHT22;38621;52.830;6.914;2023-01-10T17:12:59;6.30;99.90
52725;DHT22;38621;52.830;6.914;2023-01-10T17:15:26;6.30;99.90
52725;DHT22;38621;52.830;6.914;2023-01-10T17:17:53;6.30;99.90
52725;DHT22;38621;52.830;6.914;2023-01-10T17:20:19;6.30;99.90
52725;DHT22;38621;52.830;6.914;2023-01-10T17:22:45;6.30;99.90
52725;DHT22;38621;52.830;6.914;2023-01-10T17:25:15;6.30;99.90
52725;DHT22;38621;52.830;6.914;2023-01-10T17:27:42;6.30;99.90
52725;DHT22;38621;52.830;6.914;2023-01-10T17:30:09;6.30;99.90
52725;DHT22;38621;52.830;6.914;2023-01-10T17:32:35;6.20;99.90
52725;DHT22;38621;52.830;6.914;2023-01-10T17:35:01;6.20;99.90
52725;DHT22;38621;52.830;6.914;2023-01-10T17:37:27;6.20;99.90
52725;DHT22;38621;52.830;6.914;2023-01-10T17:39:53;6.20;99.90
52725;DHT22;38621;52.830;6.914;2023-01-10T17:42:18;6.20;99.90
52725;DHT22;38621;52.830;6.914;2023-01-10T17:44:44;6.20;99.90
52725;DHT22;38621;52.830;6.914;2023-01-10T17:47:10;6.20;99.90
52725;DHT22;38621;52.830;6.914;2023-01-10T17:49:35;6.20;99.90
52725;DHT22;38621;52.830;6.914;2023-01-10T17:52:01;6.20;99.90
52725;DHT22;38621;52.830;6.914;2023-01-10T17:54:27;6.20;99.90
52725;DHT22;38621;52.830;6.914;2023-01-10T17:56:53;6.20;99.90
52725;DHT22;38621;52.830;6.914;2023-01-10T17:59:19;6.20;99.90
52725;DHT22;38621;52.830;6.914;2023-01-10T18:01:46;6.20;99.90
52725;DHT22;38621;52.830;6.914;2023-01-10T18:04:12;6.10;99.90
52725;DHT22;38621;52.830;6.914;2023-01-10T18:06:37;6.10;99.90
52725;DHT22;38621;52.830;6.914;2023-01-10T18:09:03;6.10;99.90
52725;DHT22;38621;52.830;6.914;2023-01-10T18:11:29;6.10;99.90
52725;DHT22;38621;52.830;6.914;2023-01-10T18:13:57;6.10;99.90
52725;DHT22;38621;52.830;6.914;2023-01-10T18:16:23;6.10;99.90
52725;DHT22;38621;52.830;6.914;2023-01-10T18:18:49;6.10;99.90